createdAt,value
2018-10-17T00:00:26.272Z,88.02
2018-10-17T00:01:26.258Z,88.12
2018-10-17T00:02:27.334Z,88.12
2018-10-17T00:03:26.760Z,88.17
2018-10-17T00:04:26.266Z,88.02
2018-10-17T00:05:28.263Z,88.12
2018-10-17T00:06:28.269Z,88.12
2018-10-17T00:07:28.771Z,88.02
2018-10-17T00:08:26.295Z,87.74
2018-10-17T00:09:26.332Z,88.31
2018-10-17T00:10:25.278Z,88.12
2018-10-17T00:11:23.808Z,87.93
2018-10-17T00:12:37.851Z,88.22
2018-10-17T00:13:37.283Z,88.22
2018-10-17T00:14:35.511Z,88.6
2018-10-17T00:15:34.899Z,88.41
2018-10-17T00:16:34.366Z,88.7
2018-10-17T00:17:36.292Z,88.12
2018-10-17T00:18:37.281Z,88.22
2018-10-17T00:19:38.651Z,88.27
2018-10-17T00:20:39.280Z,87.64
2018-10-17T00:24:18.779Z,88.37
2018-10-17T00:25:16.512Z,88.75
2018-10-17T00:26:16.794Z,88.65
2018-10-17T00:27:16.799Z,88.37
2018-10-17T00:28:17.782Z,88.56
2018-10-17T00:29:16.567Z,88.46
2018-10-17T00:30:16.506Z,88.17
2018-10-17T00:31:17.406Z,88.27
2018-10-17T00:32:16.790Z,88.37
2018-10-17T00:33:16.784Z,88.37
2018-10-17T00:34:17.307Z,88.56
2018-10-17T00:35:16.194Z,88.46
2018-10-17T00:36:16.539Z,88.37
2018-10-17T00:37:25.281Z,88.84
2018-10-17T00:38:25.298Z,88.65
2018-10-17T00:39:23.472Z,88.65
2018-10-17T00:40:23.002Z,88.46
2018-10-17T00:41:22.442Z,88.84
2018-10-17T00:42:21.808Z,88.84
2018-10-17T00:46:03.257Z,88.46
2018-10-17T00:47:04.078Z,88.37
2018-10-17T00:48:03.202Z,88.37
2018-10-17T00:49:03.288Z,88.17
2018-10-17T00:50:01.789Z,88.37
2018-10-17T00:50:59.655Z,88.37
2018-10-17T00:51:59.485Z,88.27
2018-10-17T00:54:44.492Z,88.75
2018-10-17T00:55:44.293Z,88.75
2018-10-17T00:56:44.782Z,88.56
2018-10-17T00:57:42.946Z,89.04
2018-10-17T00:58:41.466Z,88.75
2018-10-17T00:59:41.049Z,88.46
2018-10-17T01:00:40.811Z,88.75
2018-10-17T01:01:40.516Z,88.56
2018-10-17T01:04:21.296Z,88.84
2018-10-17T01:05:22.834Z,89.04
2018-10-17T01:06:22.293Z,89.13
2018-10-17T01:07:20.820Z,89.23
2018-10-17T01:08:20.152Z,88.94
2018-10-17T01:09:19.303Z,89.32
2018-10-17T01:10:18.452Z,89.71
2018-10-17T01:11:18.508Z,89.32
2018-10-17T01:12:17.618Z,89.8
2018-10-17T01:13:17.439Z,89.61
2018-10-17T01:15:40.101Z,89.51
2018-10-17T01:16:42.018Z,89.9
2018-10-17T01:17:44.790Z,89.8
2018-10-17T01:18:43.381Z,89.71
2018-10-17T01:19:46.291Z,89.42
2018-10-17T01:20:45.369Z,89.8
2018-10-17T01:21:44.183Z,89.13
2018-10-17T01:22:42.778Z,89.32
2018-10-17T01:23:42.411Z,89.32
2018-10-17T01:24:40.930Z,89.04
2018-10-17T01:25:41.974Z,89.04
2018-10-17T01:26:40.552Z,89.23
2018-10-17T01:27:41.300Z,89.13
2018-10-17T01:28:40.157Z,88.61
2018-10-17T01:29:39.533Z,88.84
2018-10-17T01:30:40.473Z,88.75
2018-10-17T01:31:39.047Z,88.94
2018-10-17T01:32:38.313Z,89.13
2018-10-17T01:33:37.309Z,88.65
2018-10-17T01:34:36.676Z,88.75
2018-10-17T01:35:35.746Z,88.7
2018-10-17T01:36:35.799Z,88.61
2018-10-17T01:39:16.561Z,88.23
2018-10-17T01:40:16.881Z,88.37
2018-10-17T01:41:15.528Z,88.13
2018-10-17T01:42:15.494Z,88.13
2018-10-17T01:44:31.951Z,88.32
2018-10-17T01:45:32.079Z,88.42
2018-10-17T01:46:33.393Z,88.51
2018-10-17T01:47:31.899Z,88.61
2018-10-17T01:48:30.510Z,88.23
2018-10-17T01:51:12.418Z,88.8
2018-10-17T01:52:11.628Z,88.32
2018-10-17T01:53:10.936Z,88.61
2018-10-17T01:54:09.893Z,88.51
2018-10-17T01:55:09.020Z,88.32
2018-10-17T01:56:10.910Z,88.51
2018-10-17T01:57:10.927Z,88.61
2018-10-17T01:58:09.283Z,88.13
2018-10-17T01:59:10.338Z,88.32
2018-10-17T02:01:12.431Z,88.7
2018-10-17T02:02:10.892Z,88.23
2018-10-17T02:03:10.412Z,88.61
2018-10-17T02:04:10.324Z,88.23
2018-10-17T02:05:16.663Z,88.23
2018-10-17T02:06:15.089Z,88.32
2018-10-17T02:07:14.468Z,88.8
2018-10-17T02:08:12.900Z,88.61
2018-10-17T02:09:13.333Z,88.7
2018-10-17T02:10:11.635Z,88.8
2018-10-17T02:11:12.356Z,88.61
2018-10-17T02:12:12.320Z,88.9
2018-10-17T02:13:10.896Z,88.9
2018-10-17T02:14:09.401Z,89.09
2018-10-17T02:15:09.353Z,89.18
2018-10-17T02:16:10.842Z,88.9
2018-10-17T02:17:10.380Z,88.8
2018-10-17T02:18:10.702Z,89.09
2018-10-17T02:20:52.622Z,89.18
2018-10-17T02:21:52.006Z,89.09
2018-10-17T02:22:53.870Z,88.8
2018-10-17T02:23:54.982Z,89.28
2018-10-17T02:24:54.447Z,88.32
2018-10-17T02:25:54.333Z,88.9
2018-10-17T02:26:52.351Z,88.7
2018-10-17T02:27:53.840Z,88.7
2018-10-17T02:28:52.556Z,88.51
2018-10-17T02:29:51.122Z,88.8
2018-10-17T02:30:50.334Z,88.7
2018-10-17T02:31:49.635Z,88.61
2018-10-17T02:32:49.827Z,88.8
2018-10-17T02:33:49.348Z,88.7
2018-10-17T02:34:47.904Z,88.32
2018-10-17T02:35:47.207Z,88.61
2018-10-17T02:36:49.345Z,88.13
2018-10-17T02:37:48.839Z,88.42
2018-10-17T02:38:47.488Z,88.61
2018-10-17T02:39:46.974Z,88.61
2018-10-17T02:40:45.831Z,88.8
2018-10-17T02:41:46.793Z,88.61
2018-10-17T02:42:45.478Z,88.61
2018-10-17T02:43:46.345Z,88.32
2018-10-17T02:44:45.843Z,88.8
2018-10-17T02:45:45.018Z,88.9
2018-10-17T02:46:44.069Z,88.8
2018-10-17T02:48:56.566Z,88.7
2018-10-17T02:49:56.358Z,88.7
2018-10-17T02:50:56.369Z,88.28
2018-10-17T02:51:56.425Z,88.76
2018-10-17T02:52:56.463Z,88.76
2018-10-17T02:53:56.349Z,88.51
2018-10-17T02:54:55.882Z,88.37
2018-10-17T02:55:54.823Z,88.32
2018-10-17T02:56:55.069Z,88.66
2018-10-17T02:57:53.614Z,88.76
2018-10-17T02:58:52.850Z,88.99
2018-10-17T02:59:52.482Z,88.7
2018-10-17T03:00:51.599Z,88.66
2018-10-17T03:01:52.484Z,88.76
2018-10-17T03:02:53.841Z,89.04
2018-10-17T03:03:52.881Z,89.28
2018-10-17T03:04:52.465Z,89.04
2018-10-17T03:05:52.841Z,89.04
2018-10-17T03:06:52.387Z,88.95
2018-10-17T03:07:50.854Z,88.76
2018-10-17T03:08:50.873Z,88.95
2018-10-17T03:09:50.361Z,89.04
2018-10-17T03:10:48.898Z,89.23
2018-10-17T03:11:48.939Z,89.23
2018-10-17T03:12:49.979Z,88.95
2018-10-17T03:13:50.345Z,89.33
2018-10-17T03:14:47.641Z,89.23
2018-10-17T03:15:46.242Z,89.23
2018-10-17T03:16:47.678Z,89.33
2018-10-17T03:17:47.296Z,89.23
2018-10-17T03:18:48.717Z,89.23
2018-10-17T03:19:48.848Z,88.95
2018-10-17T03:20:48.854Z,89.23
2018-10-17T03:21:50.858Z,88.95
2018-10-17T03:22:50.394Z,89.14
2018-10-17T03:23:48.962Z,88.76
2018-10-17T03:24:48.366Z,88.28
2018-10-17T03:25:46.855Z,89.04
2018-10-17T03:26:46.356Z,89.23
2018-10-17T03:27:44.034Z,89.23
2018-10-17T03:28:43.368Z,88.66
2018-10-17T03:29:41.862Z,89.04
2018-10-17T03:30:41.668Z,88.28
2018-10-17T03:31:41.430Z,88.28
2018-10-17T03:32:41.501Z,88.47
2018-10-17T03:33:40.156Z,88.47
2018-10-17T03:34:39.206Z,89.04
2018-10-17T03:35:39.258Z,88.85
2018-10-17T03:36:39.144Z,89.23
2018-10-17T03:37:39.140Z,89.23
2018-10-17T03:38:39.062Z,89.52
2018-10-17T03:39:37.597Z,89.23
2018-10-17T03:40:36.876Z,89.23
2018-10-17T03:41:35.300Z,89.33
2018-10-17T03:42:34.355Z,89.23
2018-10-17T03:43:34.875Z,88.85
2018-10-17T03:44:39.549Z,88.85
2018-10-17T03:45:41.440Z,89.14
2018-10-17T03:46:41.358Z,89.33
2018-10-17T03:47:40.505Z,89.43
2018-10-17T03:48:39.055Z,88.85
2018-10-17T03:49:39.278Z,88.85
2018-10-17T03:50:37.816Z,88.95
2018-10-17T03:51:40.370Z,88.76
2018-10-17T03:52:39.388Z,88.76
2018-10-17T03:53:39.157Z,88.66
2018-10-17T03:54:39.439Z,88.85
2018-10-17T03:55:40.385Z,88.56
2018-10-17T03:56:38.138Z,88.28
2018-10-17T03:57:36.836Z,87.99
2018-10-17T03:58:36.886Z,88.28
2018-10-17T03:59:36.905Z,88.09
2018-10-17T04:00:36.956Z,88.18
2018-10-17T04:01:38.363Z,88.18
2018-10-17T04:02:36.791Z,88.09
2018-10-17T04:03:37.054Z,87.99
2018-10-17T04:04:35.656Z,88.18
2018-10-17T04:05:34.218Z,88.18
2018-10-17T04:06:34.274Z,88.18
2018-10-17T04:07:32.885Z,88.47
2018-10-17T04:08:33.254Z,88.56
2018-10-17T04:09:31.871Z,88.28
2018-10-17T04:10:30.895Z,88.47
2018-10-17T04:11:29.478Z,88.28
2018-10-17T04:12:28.125Z,88.56
2018-10-17T04:13:28.379Z,88.09
2018-10-17T04:14:28.041Z,88.66
2018-10-17T04:15:27.446Z,88.76
2018-10-17T04:16:26.060Z,88.66
2018-10-17T04:17:24.679Z,88.76
2018-10-17T04:18:24.677Z,88.18
2018-10-17T04:19:23.286Z,87.99
2018-10-17T04:20:23.722Z,88.09
2018-10-17T04:21:23.734Z,87.9
2018-10-17T04:22:23.756Z,87.9
2018-10-17T04:23:22.456Z,87.9
2018-10-17T04:24:25.884Z,88.09
2018-10-17T04:25:24.724Z,88.18
2018-10-17T04:26:23.231Z,88.37
2018-10-17T04:27:22.320Z,88.37
2018-10-17T04:28:20.853Z,87.9
2018-10-17T04:29:19.382Z,88.37
2018-10-17T04:30:17.994Z,88.28
2018-10-17T04:31:17.411Z,88.09
2018-10-17T04:32:15.127Z,87.99
2018-10-17T04:33:14.635Z,88.18
2018-10-17T04:34:13.978Z,88.09
2018-10-17T04:36:54.154Z,87.9
2018-10-17T04:37:54.386Z,88.28
2018-10-17T04:38:56.399Z,88.28
2018-10-17T04:39:55.888Z,88.18
2018-10-17T04:40:56.142Z,88.33
2018-10-17T04:41:58.377Z,88.13
2018-10-17T04:42:57.504Z,88.23
2018-10-17T04:43:57.881Z,88.04
2018-10-17T04:44:57.888Z,88.18
2018-10-17T04:45:57.257Z,88.13
2018-10-17T04:46:55.818Z,88.62
2018-10-17T04:47:54.957Z,88.47
2018-10-17T04:50:39.624Z,88.62
2018-10-17T04:51:38.715Z,88.81
2018-10-17T04:52:39.405Z,89
2018-10-17T04:53:37.632Z,88.81
2018-10-17T04:54:36.776Z,88.9
2018-10-17T04:55:36.895Z,88.71
2018-10-17T04:56:36.173Z,89.19
2018-10-17T04:57:38.037Z,89
2018-10-17T04:58:38.477Z,89
2018-10-17T04:59:38.884Z,88.71
2018-10-17T05:02:20.076Z,88.33
2018-10-17T05:05:06.617Z,88.52
2018-10-17T05:07:46.424Z,88.71
2018-10-17T05:14:15.455Z,88.23
2018-10-17T05:17:00.010Z,88.52
2018-10-17T05:18:00.595Z,88.43
2018-10-17T05:28:43.205Z,89.43
2018-10-17T05:35:29.801Z,99.99
2018-10-17T05:39:53.423Z,99.99
2018-10-17T05:42:39.898Z,94.5
2018-10-17T05:43:40.784Z,94.21
2018-10-17T05:44:41.751Z,92.44
2018-10-17T05:47:14.964Z,99.99
2018-10-17T05:48:13.225Z,99.99
2018-10-17T05:49:12.988Z,99.99
2018-10-17T05:50:20.757Z,99.99
2018-10-17T05:51:23.766Z,99.99
2018-10-17T05:54:03.199Z,90.53
2018-10-17T05:55:02.833Z,88.99
2018-10-17T05:56:03.822Z,88.9
2018-10-17T05:57:04.760Z,88.8
2018-10-17T05:58:04.260Z,88.13
2018-10-17T06:02:27.350Z,88.08
2018-10-17T06:03:29.895Z,87.12
2018-10-17T06:04:30.486Z,87.5
2018-10-17T06:05:29.347Z,87.98
2018-10-17T06:06:29.366Z,88.37
2018-10-17T06:09:09.343Z,99.99
2018-10-17T06:10:08.296Z,99.99
2018-10-17T06:11:07.317Z,99.99
2018-10-17T06:17:51.224Z,99.99
2018-10-17T06:19:53.983Z,99.99
2018-10-17T06:44:36.949Z,85
2018-10-17T06:45:37.023Z,84.23
2018-10-17T06:46:36.028Z,84.61
2018-10-17T06:47:34.420Z,84.14
2018-10-17T06:50:20.194Z,84.33
2018-10-17T06:51:20.372Z,83.94
2018-10-17T06:57:25.804Z,99.99
2018-10-17T07:00:06.303Z,99.99
2018-10-17T07:05:13.367Z,88.11
2018-10-17T07:08:55.169Z,99.99
2018-10-17T07:09:57.271Z,99.99
2018-10-17T07:10:58.130Z,99.99
2018-10-17T07:13:39.679Z,99.99
2018-10-17T07:14:39.732Z,99.99
2018-10-17T07:17:22.190Z,96.27
2018-10-17T07:18:22.246Z,95.98
2018-10-17T07:21:18.132Z,86.77
2018-10-17T07:25:51.253Z,83.89
2018-10-17T07:28:30.592Z,82.74
2018-10-17T07:31:11.925Z,83.41
2018-10-17T07:32:12.366Z,83.98
2018-10-17T07:34:53.398Z,83.6
2018-10-17T07:40:18.772Z,99.99
2018-10-17T07:43:00.985Z,99.99
2018-10-17T07:49:31.832Z,88.59
2018-10-17T07:52:16.554Z,84.56
2018-10-17T07:54:08.923Z,83.6
2018-10-17T07:59:08.471Z,81.97
2018-10-17T08:01:53.784Z,82.01
2018-10-17T08:04:34.803Z,80.38
2018-10-17T08:06:36.048Z,80.28
2018-10-17T08:07:36.684Z,81.24
2018-10-17T08:10:52.520Z,94.64
2018-10-17T08:15:18.827Z,90.8
2018-10-17T08:16:26.554Z,86.47
2018-10-17T08:17:28.877Z,83.3
2018-10-17T08:18:33.424Z,81.96
2018-10-17T08:21:15.228Z,81.09
2018-10-17T08:23:56.881Z,90.84
2018-10-17T08:24:55.953Z,92.29
2018-10-17T08:27:21.941Z,98.19
2018-10-17T08:28:21.868Z,99.99
2018-10-17T08:29:20.195Z,88.25
2018-10-17T08:30:19.939Z,82.59
2018-10-17T08:31:19.953Z,82.68
2018-10-17T08:35:42.457Z,80.76
2018-10-17T08:37:32.471Z,79.71
2018-10-17T08:38:32.036Z,80.8
2018-10-17T08:41:13.261Z,79.75
2018-10-17T08:49:17.470Z,90.17
2018-10-17T08:50:17.159Z,90.07
2018-10-17T08:51:17.748Z,89.69
2018-10-17T08:52:20.043Z,87.57
2018-10-17T08:53:18.895Z,82.09
2018-10-17T08:54:18.736Z,80.27
2018-10-17T08:55:26.000Z,78.83
2018-10-17T08:56:29.518Z,78.06
2018-10-17T08:57:29.640Z,78.34
2018-10-17T09:03:10.208Z,83.77
2018-10-17T09:04:08.856Z,99.99
2018-10-17T09:05:09.549Z,99.99
2018-10-17T09:07:24.140Z,99.99
2018-10-17T09:08:24.154Z,99.99
2018-10-17T09:09:22.862Z,94.78
2018-10-17T09:10:22.840Z,99.99
2018-10-17T09:11:23.795Z,95.45
2018-10-17T09:12:23.845Z,95.07
2018-10-17T09:13:30.693Z,85.83
2018-10-17T09:14:30.974Z,96.61
2018-10-17T09:15:29.718Z,94.87
2018-10-17T09:16:29.660Z,93.82
2018-10-17T09:17:29.624Z,96.89
2018-10-17T09:18:31.605Z,88.04
2018-10-17T09:19:33.729Z,89.35
2018-10-17T09:20:31.315Z,87.42
2018-10-17T09:21:29.463Z,82.52
2018-10-17T09:22:33.245Z,78.67
2018-10-17T09:25:14.254Z,76.56
2018-10-17T09:28:54.116Z,77.26
2018-10-17T09:29:53.016Z,77.17
2018-10-17T09:30:52.639Z,76.59
2018-10-17T09:31:51.137Z,74.76
2018-10-17T09:32:51.117Z,74.96
2018-10-17T09:33:57.155Z,74.09
2018-10-17T09:34:55.440Z,76.01
2018-10-17T09:35:55.406Z,74.96
2018-10-17T09:42:20.545Z,80.73
2018-10-17T09:43:19.085Z,81.4
2018-10-17T09:44:19.566Z,92.13
2018-10-17T09:48:03.327Z,89.77
2018-10-17T09:50:44.502Z,75.28
2018-10-17T09:51:44.207Z,73.94
2018-10-17T09:52:46.119Z,80.58
2018-10-17T09:53:46.623Z,85.72
2018-10-17T09:54:45.669Z,88.81
2018-10-17T09:57:26.254Z,77.34
2018-10-17T09:58:25.717Z,73.68
2018-10-17T09:59:33.305Z,89.96
2018-10-17T10:00:31.209Z,88.04
2018-10-17T10:03:11.789Z,82.26
2018-10-17T10:05:55.190Z,78.21
2018-10-17T10:06:53.583Z,75.55
2018-10-17T10:07:53.010Z,74.3
2018-10-17T10:08:54.530Z,73.43
2018-10-17T10:14:29.551Z,71.15
2018-10-17T10:17:12.954Z,84.94
2018-10-17T10:19:57.131Z,72.66
2018-10-17T10:21:54.093Z,78.34
2018-10-17T10:22:53.951Z,73.43
2018-10-17T10:25:34.546Z,69.77
2018-10-17T10:28:16.902Z,76.55
2018-10-17T10:29:16.852Z,85.33
2018-10-17T10:30:16.865Z,85.33
2018-10-17T10:31:16.855Z,89.37
2018-10-17T10:32:17.106Z,86.87
2018-10-17T10:33:18.134Z,86.58
2018-10-17T10:35:57.869Z,90.05
2018-10-17T10:38:41.642Z,85.71
2018-10-17T10:41:22.686Z,72.89
2018-10-17T10:42:22.358Z,72.92
2018-10-17T10:43:20.953Z,70.7
2018-10-17T10:44:26.866Z,70.61
2018-10-17T10:45:27.921Z,71.58
2018-10-17T10:46:26.666Z,71.28
2018-10-17T10:49:12.484Z,72.15
2018-10-17T10:50:11.357Z,78.03
2018-10-17T10:51:10.973Z,82.76
2018-10-17T10:54:49.254Z,92.6
2018-10-17T10:58:30.569Z,71.34
2018-10-17T10:59:29.806Z,70
2018-10-17T11:00:28.890Z,71.54
2018-10-17T11:03:10.541Z,71.54
2018-10-17T11:05:53.663Z,88.75
2018-10-17T11:06:54.397Z,95.98
2018-10-17T11:07:52.896Z,93.62
2018-10-17T11:08:51.549Z,89.95
2018-10-17T11:09:51.629Z,80.1
2018-10-17T11:26:34.919Z,74.66
2018-10-17T11:32:56.019Z,68.62
2018-10-17T11:35:36.124Z,68.91
2018-10-17T11:36:35.630Z,72.03
2018-10-17T11:37:34.553Z,82.17
2018-10-17T11:38:33.897Z,74.44
2018-10-17T11:39:32.443Z,83.96
2018-10-17T11:42:14.393Z,79.52
2018-10-17T11:43:12.391Z,83.48
2018-10-17T11:45:53.915Z,75.37
2018-10-17T11:47:58.503Z,72.96
2018-10-17T11:50:41.503Z,68.33
2018-10-17T11:51:39.511Z,68.91
2018-10-17T11:54:21.144Z,67.27
2018-10-17T11:55:18.930Z,67.46
2018-10-17T11:59:00.340Z,66.72
2018-10-17T12:00:00.079Z,67.01
2018-10-17T12:01:01.010Z,66.91
2018-10-17T12:03:42.684Z,66.05
2018-10-17T12:04:41.792Z,66.53
2018-10-17T12:05:41.741Z,67.49
2018-10-17T12:06:39.788Z,67.78
2018-10-17T12:07:39.056Z,68.75
2018-10-17T12:10:19.521Z,67.97
2018-10-17T12:13:01.023Z,65.98
2018-10-17T12:14:00.179Z,66.66
2018-10-17T12:14:58.900Z,66.17
2018-10-17T12:15:58.401Z,65.88
2018-10-17T12:18:22.390Z,65.37
2018-10-17T12:19:22.638Z,66.17
2018-10-17T12:20:21.153Z,66.46
2018-10-17T12:24:46.257Z,65.47
2018-10-17T12:25:46.140Z,65.4
2018-10-17T12:26:44.155Z,65.11
2018-10-17T12:27:43.327Z,65.59
2018-10-17T12:28:42.060Z,64.98
2018-10-17T12:31:23.667Z,66.08
2018-10-17T12:32:22.939Z,65.5
2018-10-17T12:35:03.148Z,64.34
2018-10-17T12:36:04.727Z,64.63
2018-10-17T12:37:04.688Z,64.92
2018-10-17T12:38:08.146Z,65.11
2018-10-17T12:39:04.140Z,64.92
2018-10-17T12:40:09.796Z,64.82
2018-10-17T12:41:09.531Z,64.92
2018-10-17T12:42:09.675Z,64.53
2018-10-17T12:43:07.305Z,64.63
2018-10-17T12:44:09.181Z,65.59
2018-10-17T12:45:07.985Z,64.92
2018-10-17T12:46:09.668Z,64.53
2018-10-17T12:47:07.520Z,64.72
2018-10-17T12:48:09.756Z,64.34
2018-10-17T12:49:09.751Z,64.63
2018-10-17T12:50:09.226Z,64.43
2018-10-17T12:51:08.178Z,65.3
2018-10-17T12:52:06.820Z,65.5
2018-10-17T12:53:06.491Z,64.72
2018-10-17T12:54:06.657Z,64.53
2018-10-17T12:55:04.468Z,65.01
2018-10-17T12:56:04.955Z,65.01
2018-10-17T12:57:05.153Z,64.72
2018-10-17T12:58:03.122Z,64.72
2018-10-17T12:59:01.787Z,64.53
2018-10-17T13:00:00.793Z,64.92
2018-10-17T13:01:01.011Z,64.72
2018-10-17T13:02:00.156Z,64.53
2018-10-17T13:02:58.983Z,64.63
2018-10-17T13:03:59.656Z,64.34
2018-10-17T13:04:58.410Z,64.53
2018-10-17T13:05:58.668Z,64.53
2018-10-17T13:06:56.944Z,64.53
2018-10-17T13:07:55.538Z,64.53
2018-10-17T13:10:05.219Z,64.72
2018-10-17T13:11:03.838Z,64.72
2018-10-17T13:12:06.980Z,64.34
2018-10-17T13:13:07.313Z,64.34
2018-10-17T13:14:04.886Z,64.24
2018-10-17T13:15:06.552Z,64.05
2018-10-17T13:16:06.237Z,64.05
2018-10-17T13:17:05.289Z,64.53
2018-10-17T13:18:04.264Z,63.85
2018-10-17T13:19:05.331Z,64.14
2018-10-17T13:20:02.553Z,63.85
2018-10-17T13:21:01.021Z,64.14
2018-10-17T13:22:01.235Z,64.24
2018-10-17T13:22:59.831Z,63.47
2018-10-17T13:23:57.826Z,63.56
2018-10-17T13:24:58.362Z,64.08
2018-10-17T13:25:56.973Z,63.76
2018-10-17T13:26:59.301Z,63.76
2018-10-17T13:27:57.899Z,63.37
2018-10-17T13:28:58.519Z,63.47
2018-10-17T13:29:57.834Z,63.66
2018-10-17T13:30:59.255Z,63.66
2018-10-17T13:31:59.251Z,63.56
2018-10-17T13:32:57.334Z,63.47
2018-10-17T13:33:56.929Z,62.89
2018-10-17T13:35:00.829Z,63.37
2018-10-17T13:36:00.323Z,62.98
2018-10-17T13:37:00.316Z,63.18
2018-10-17T13:37:59.840Z,62.89
2018-10-17T13:39:00.736Z,62.98
2018-10-17T13:40:01.798Z,63.08
2018-10-17T13:41:00.760Z,62.98
2018-10-17T13:46:21.909Z,62.98
2018-10-17T13:47:22.380Z,62.89
2018-10-17T13:48:20.953Z,63.18
2018-10-17T13:49:20.669Z,62.89
2018-10-17T13:50:19.468Z,61.92
2018-10-17T13:53:02.831Z,63.18
2018-10-17T13:54:00.376Z,62.98
2018-10-17T13:55:00.993Z,63.08
2018-10-17T13:56:03.250Z,63.28
2018-10-17T13:57:01.699Z,62.79
2018-10-17T13:58:01.326Z,63.08
2018-10-17T14:00:42.791Z,62.6
2018-10-17T14:01:41.592Z,62.21
2018-10-17T14:02:40.533Z,62.6
2018-10-17T14:03:40.661Z,62.79
2018-10-17T14:06:22.252Z,63.66
2018-10-17T14:07:21.788Z,63.37
2018-10-17T14:10:01.241Z,62.7
2018-10-17T14:11:00.912Z,63.08
2018-10-17T14:12:01.330Z,62.79
2018-10-17T14:13:03.282Z,62.31
2018-10-17T14:14:37.765Z,62.6
2018-10-17T14:15:37.749Z,62.21
2018-10-17T14:17:59.024Z,61.92
2018-10-17T14:19:02.079Z,61.15
2018-10-17T14:21:44.037Z,61.34
2018-10-17T14:22:44.100Z,60.96
2018-10-17T14:23:43.028Z,60.67
2018-10-17T14:26:24.923Z,61.34
2018-10-17T14:27:24.710Z,60.67
2018-10-17T14:28:26.561Z,60.76
2018-10-17T14:32:07.540Z,61.51
2018-10-17T14:33:06.906Z,61.6
2018-10-17T14:34:06.571Z,61.44
2018-10-17T14:35:06.073Z,61.51
2018-10-17T14:36:07.027Z,61.44
2018-10-17T14:37:06.524Z,61.54
2018-10-17T14:38:07.479Z,61.22
2018-10-17T14:39:06.211Z,61.15
2018-10-17T14:42:47.937Z,61.41
2018-10-17T14:43:47.580Z,61.31
2018-10-17T14:44:47.976Z,61.6
2018-10-17T14:45:46.957Z,61.8
2018-10-17T14:46:46.520Z,61.99
2018-10-17T14:47:46.942Z,61.7
2018-10-17T14:48:45.372Z,62.18
2018-10-17T14:49:45.931Z,62.18
2018-10-17T14:50:45.533Z,61.8
2018-10-17T14:53:26.437Z,61.89
2018-10-17T14:54:24.811Z,61.89
2018-10-17T14:55:24.937Z,61.89
2018-10-17T14:56:23.360Z,61.89
2018-10-17T14:57:37.954Z,61.89
2018-10-17T15:00:17.564Z,61.99
2018-10-17T15:01:16.191Z,61.99
2018-10-17T15:02:15.664Z,62.47
2018-10-17T15:03:15.098Z,62.76
2018-10-17T15:05:58.968Z,63.53
2018-10-17T15:08:39.796Z,66.63
2018-10-17T15:09:40.489Z,67.11
2018-10-17T15:10:41.181Z,67.49
2018-10-17T15:11:40.564Z,68.17
2018-10-17T15:12:40.988Z,68.07
2018-10-17T15:13:41.459Z,68.17
2018-10-17T15:14:40.446Z,68.26
2018-10-17T15:15:39.954Z,68.46
2018-10-17T15:16:39.631Z,68.75
2018-10-17T15:17:38.451Z,68.65
2018-10-17T15:20:21.947Z,68.91
2018-10-17T15:21:21.289Z,69.29
2018-10-17T15:22:19.839Z,69.29
2018-10-17T15:23:19.469Z,69.1
2018-10-17T15:24:18.563Z,69.68
2018-10-17T15:25:17.625Z,69.68
2018-10-17T15:26:17.954Z,70.16
2018-10-17T15:27:16.560Z,69.68
2018-10-17T15:28:19.880Z,69.87
2018-10-17T15:29:18.498Z,69.68
2018-10-17T15:30:18.682Z,69.87
2018-10-17T15:31:19.034Z,69.97
2018-10-17T15:32:18.460Z,70.26
2018-10-17T15:33:16.531Z,70.54
2018-10-17T15:35:57.599Z,70.54
2018-10-17T15:36:57.982Z,70.74
2018-10-17T15:37:55.965Z,70.45
2018-10-17T15:38:56.517Z,70.74
2018-10-17T15:41:21.468Z,70.94
2018-10-17T15:42:19.274Z,70.36
2018-10-17T15:43:17.806Z,70.74
2018-10-17T15:44:16.958Z,70.74
2018-10-17T15:45:15.980Z,70.94
2018-10-17T15:46:14.482Z,70.51
2018-10-17T15:47:12.971Z,70.64
2018-10-17T15:48:13.811Z,71
2018-10-17T15:49:13.963Z,71.38
2018-10-17T15:50:12.091Z,71.09
2018-10-17T15:51:11.588Z,71.77
2018-10-17T15:52:10.842Z,71.86
2018-10-17T15:53:15.203Z,72.15
2018-10-17T15:54:14.996Z,72.06
2018-10-17T15:55:14.034Z,71.86
2018-10-17T15:56:12.655Z,71.58
2018-10-17T15:57:12.079Z,72.15
2018-10-17T15:58:11.966Z,72.25
2018-10-17T15:59:11.976Z,73.02
2018-10-17T16:01:51.983Z,72.89
2018-10-17T16:02:49.783Z,72.89
2018-10-17T16:03:48.345Z,72.89
2018-10-17T16:06:29.994Z,72.89
2018-10-17T16:07:29.489Z,73.08
2018-10-17T16:08:28.012Z,73.08
2018-10-17T16:09:27.180Z,72.89
2018-10-17T16:12:08.534Z,73.27
2018-10-17T16:13:06.943Z,73.47
2018-10-17T16:14:06.559Z,73.37
2018-10-17T16:15:05.980Z,73.47
2018-10-17T16:16:05.678Z,74.05
2018-10-17T16:17:06.114Z,74.43
2018-10-17T16:18:05.624Z,73.62
2018-10-17T16:20:46.483Z,74.52
2018-10-17T16:21:44.521Z,74.49
2018-10-17T16:22:44.252Z,74.43
2018-10-17T16:23:42.823Z,74.88
2018-10-17T16:24:41.713Z,74.88
2018-10-17T16:27:22.704Z,74.58
2018-10-17T16:28:22.515Z,74.4
2018-10-17T16:29:20.109Z,74.97
2018-10-17T16:30:19.966Z,75.26
2018-10-17T16:31:20.494Z,75.45
2018-10-17T16:32:19.887Z,75.45
2018-10-17T16:33:20.541Z,75.65
2018-10-17T16:36:00.941Z,76.61
2018-10-17T16:37:01.995Z,76.8
2018-10-17T16:38:00.053Z,76.71
2018-10-17T16:38:58.500Z,76.71
2018-10-17T16:39:58.034Z,76.51
2018-10-17T16:40:59.068Z,77
2018-10-17T16:41:59.506Z,76.86
2018-10-17T16:42:56.514Z,77
2018-10-17T16:43:56.228Z,76.9
2018-10-17T16:44:56.501Z,77.19
2018-10-17T16:45:56.004Z,77.44
2018-10-17T16:46:54.724Z,77.83
2018-10-17T16:49:35.024Z,78.79
2018-10-17T16:50:35.634Z,79.08
2018-10-17T16:51:34.496Z,78.69
2018-10-17T16:52:34.005Z,79.08
2018-10-17T16:55:14.640Z,79.56
2018-10-17T16:56:13.643Z,79.66
2018-10-17T16:58:30.166Z,79.75
2018-10-17T16:59:32.135Z,79.66
2018-10-17T17:00:29.708Z,80.14
2018-10-17T17:01:28.526Z,79.85
2018-10-17T17:02:29.592Z,80.33
2018-10-17T17:03:28.188Z,80.14
2018-10-17T17:04:28.745Z,80.23
2018-10-17T17:07:08.382Z,80.58
2018-10-17T17:08:08.008Z,80.91
2018-10-17T17:09:07.342Z,80.58
2018-10-17T17:10:06.647Z,81.16
2018-10-17T17:11:06.190Z,81.73
2018-10-17T17:12:05.780Z,81.45
2018-10-17T17:13:05.158Z,81.54
2018-10-17T17:14:03.684Z,81.16
2018-10-17T17:16:44.176Z,81.93
2018-10-17T17:17:43.152Z,82.12
2018-10-17T17:18:42.654Z,82.02
2018-10-17T17:19:42.165Z,81.83
2018-10-17T17:20:40.170Z,82.6
2018-10-17T17:21:39.646Z,82.02
2018-10-17T17:22:38.277Z,81.93
2018-10-17T17:23:39.669Z,82.7
2018-10-17T17:24:39.606Z,82.7
2018-10-17T17:25:39.169Z,82.79
2018-10-17T17:26:38.104Z,83.08
2018-10-17T17:27:38.156Z,82.89
2018-10-17T17:28:37.656Z,82.6
2018-10-17T17:29:39.827Z,83.08
2018-10-17T17:30:40.665Z,83.18
2018-10-17T17:31:42.148Z,82.89
2018-10-17T17:32:43.264Z,83.56
2018-10-17T17:33:42.041Z,83.28
2018-10-17T17:34:43.304Z,83.28
2018-10-17T17:35:41.770Z,82.89
2018-10-17T17:36:40.582Z,83.08
2018-10-17T17:37:40.167Z,83.18
2018-10-17T17:38:38.867Z,82.65
2018-10-17T17:39:40.160Z,83.52
2018-10-17T17:42:19.367Z,83.42
2018-10-17T17:43:21.192Z,83.62
2018-10-17T17:44:19.162Z,83.42
2018-10-17T17:45:17.735Z,83.72
2018-10-17T17:46:20.032Z,84
2018-10-17T17:47:19.911Z,84.1
2018-10-17T17:48:19.185Z,84
2018-10-17T17:49:21.702Z,84.19
2018-10-17T17:50:20.555Z,83.81
2018-10-17T17:51:19.499Z,84
2018-10-17T17:52:19.501Z,84.05
2018-10-17T17:53:18.669Z,84.19
2018-10-17T17:54:16.905Z,83.72
2018-10-17T17:55:19.238Z,84
2018-10-17T17:56:18.672Z,84.48
2018-10-17T17:58:58.514Z,84.29
2018-10-17T17:59:58.846Z,84.29
2018-10-17T18:00:58.842Z,84.48
2018-10-17T18:02:03.164Z,84.39
2018-10-17T18:03:03.295Z,83.72
2018-10-17T18:04:04.276Z,84.58
2018-10-17T18:05:04.196Z,83.81
2018-10-17T18:07:46.172Z,83.72
2018-10-17T18:08:48.684Z,83.91
2018-10-17T18:09:50.801Z,83.81
2018-10-17T18:12:34.491Z,84.48
2018-10-17T18:15:15.728Z,84.19
2018-10-17T18:21:46.351Z,84.77
2018-10-17T18:22:46.571Z,85.25
2018-10-17T18:23:45.311Z,84.97
2018-10-17T18:24:45.685Z,84.58
2018-10-17T18:25:43.577Z,85.35
2018-10-17T18:28:24.681Z,85.64
2018-10-17T18:29:27.766Z,86.41
2018-10-17T18:30:29.438Z,85.98
2018-10-17T18:50:03.189Z,85.69
2018-10-17T18:51:02.778Z,85.74